Time;durP1;ratioP1;P1;durP2;ratioP2;P2;SDS_P1;SDS_P2;PMS_P1;PMS_P2;Temp;Humidity;BMP_temperature;BMP_pressure;BME280_temperature;BME280_humidity;BME280_pressure;Samples;Min_cycle;Max_cycle;Signal;HPM_P1;HPM_P2
2022/06/03 00:02:23;;;;;;;12.52;3.60;;;10.40;99.90;;;;;;5064998;28;20106;-77
2022/06/03 00:05:16;;;;;;;6.05;3.40;;;10.40;99.90;;;;;;5068381;28;20064;-78
2022/06/03 00:07:54;;;;;;;6.82;3.50;;;10.30;99.90;;;;;;5059295;28;20442;-78
2022/06/03 00:10:20;;;;;;;9.30;3.70;;;10.30;99.90;;;;;;5055587;28;20044;-79
2022/06/03 00:13:20;;;;;;;8.05;4.65;;;10.30;99.90;;;;;;5060599;28;20032;-78
2022/06/03 00:16:04;;;;;;;7.38;3.95;;;10.20;99.90;;;;;;5058288;28;20048;-78
2022/06/03 00:19:04;;;;;;;6.10;3.95;;;10.20;99.90;;;;;;5066682;28;20122;-76
2022/06/03 00:21:46;;;;;;;6.07;4.10;;;10.10;99.90;;;;;;5047078;28;20096;-77
2022/06/03 00:24:24;;;;;;;11.40;4.95;;;10.10;99.90;;;;;;5083166;28;20047;-77
2022/06/03 00:27:11;;;;;;;5.22;4.68;;;10.10;99.90;;;;;;5071592;28;20360;-77
2022/06/03 00:29:59;;;;;;;9.48;5.32;;;10.00;99.90;;;;;;5066479;28;20047;-77
2022/06/03 00:32:40;;;;;;;8.82;4.97;;;10.00;99.90;;;;;;5064154;28;20053;-76
2022/06/03 00:35:26;;;;;;;7.65;5.03;;;9.90;99.90;;;;;;5059194;28;20078;-77
2022/06/03 00:38:21;;;;;;;8.27;4.90;;;9.90;99.90;;;;;;5072903;28;20049;-78
2022/06/03 00:41:02;;;;;;;7.07;5.07;;;9.90;99.90;;;;;;5077241;28;20036;-78
2022/06/03 00:43:55;;;;;;;12.02;5.13;;;9.90;99.90;;;;;;5072402;28;21658;-79
2022/06/03 00:46:39;;;;;;;9.82;5.22;;;9.90;99.90;;;;;;5080003;28;20055;-80
2022/06/03 00:49:10;;;;;;;9.60;4.95;;;9.90;99.90;;;;;;5071137;28;20398;-79
2022/06/03 00:51:59;;;;;;;16.17;4.90;;;9.90;99.90;;;;;;5062091;28;20085;-79
2022/06/03 00:54:49;;;;;;;9.30;5.40;;;9.80;99.90;;;;;;5078297;28;20106;-77
2022/06/03 00:57:20;;;;;;;7.03;4.95;;;9.80;99.90;;;;;;5061490;28;20073;-79
2022/06/03 01:00:14;;;;;;;7.28;5.75;;;9.80;99.90;;;;;;5075772;28;20067;-79
2022/06/03 01:03:08;;;;;;;7.30;5.47;;;9.70;99.90;;;;;;5089115;28;20094;-79
2022/06/03 01:05:39;;;;;;;15.80;6.28;;;9.80;99.90;;;;;;5076408;28;20027;-77
2022/06/03 01:08:11;;;;;;;7.72;5.68;;;9.80;99.90;;;;;;5070816;28;20080;-76
2022/06/03 01:10:58;;;;;;;10.25;6.32;;;9.80;99.90;;;;;;5058584;28;20060;-77
2022/06/03 01:13:26;;;;;;;11.75;6.80;;;9.80;99.90;;;;;;5075323;28;20498;-78
2022/06/03 01:16:20;;;;;;;11.95;6.03;;;9.80;99.90;;;;;;5048726;28;20052;-78
2022/06/03 01:18:59;;;;;;;10.05;5.57;;;9.80;99.90;;;;;;5079960;28;20083;-78
2022/06/03 01:22:01;;;;;;;10.65;6.38;;;9.80;99.90;;;;;;5067520;28;20676;-79
2022/06/03 01:24:49;;;;;;;9.43;6.07;;;9.80;99.90;;;;;;5072568;28;20049;-79
2022/06/03 01:27:33;;;;;;;8.07;5.90;;;9.80;99.90;;;;;;5077269;28;20119;-76
2022/06/03 01:30:20;;;;;;;11.00;5.90;;;9.70;99.90;;;;;;5060502;28;20042;-77
2022/06/03 01:33:15;;;;;;;8.30;5.65;;;9.80;99.90;;;;;;5066661;28;20040;-77
2022/06/03 01:36:04;;;;;;;8.95;5.85;;;9.70;99.90;;;;;;5055613;28;20285;-77
2022/06/03 01:38:51;;;;;;;10.68;6.43;;;9.70;99.90;;;;;;5065572;28;20059;-77
2022/06/03 01:41:35;;;;;;;7.53;5.95;;;9.60;99.90;;;;;;5081685;28;20069;-77
2022/06/03 01:44:16;;;;;;;11.43;5.75;;;9.50;99.90;;;;;;5074424;28;20036;-77
2022/06/03 01:47:38;;;;;;;7.38;5.55;;;9.60;99.90;;;;;;5080403;28;20131;-76
2022/06/03 01:50:22;;;;;;;7.80;5.65;;;9.60;99.90;;;;;;5075202;28;20055;-77
2022/06/03 01:53:06;;;;;;;10.70;6.03;;;9.60;99.90;;;;;;5043322;28;20036;-78
2022/06/03 01:56:05;;;;;;;12.88;6.05;;;9.50;99.90;;;;;;5055410;28;20487;-76
2022/06/03 01:58:52;;;;;;;8.02;5.80;;;9.50;99.90;;;;;;5075547;28;20127;-77
2022/06/03 02:02:05;;;;;;;10.73;5.55;;;9.50;99.90;;;;;;5075261;28;20028;-76
2022/06/03 02:04:55;;;;;;;7.95;5.57;;;9.50;99.90;;;;;;4970092;28;20395;-77
2022/06/03 02:07:57;;;;;;;11.98;5.25;;;9.50;99.90;;;;;;4973620;28;20042;-76
2022/06/03 02:10:40;;;;;;;9.57;6.00;;;9.40;99.90;;;;;;4914205;29;20051;-77
2022/06/03 02:13:43;;;;;;;7.22;5.10;;;9.50;99.90;;;;;;4899866;29;20044;-78
2022/06/03 02:16:30;;;;;;;7.45;5.22;;;9.50;99.90;;;;;;4915633;29;20050;-78
2022/06/03 02:19:33;;;;;;;9.75;5.32;;;9.40;99.90;;;;;;4913857;29;20122;-78
2022/06/03 02:22:26;;;;;;;7.03;5.30;;;9.40;99.90;;;;;;4911969;29;20118;-77
2022/06/03 02:25:06;;;;;;;7.95;5.03;;;9.40;99.90;;;;;;4927588;29;20100;-78
2022/06/03 02:28:09;;;;;;;8.07;5.22;;;9.40;99.90;;;;;;4913910;29;20047;-77
2022/06/03 02:31:05;;;;;;;7.53;4.70;;;9.40;99.90;;;;;;4916011;29;20047;-78
2022/06/03 02:34:09;;;;;;;7.70;5.13;;;9.40;99.90;;;;;;4897547;29;20058;-75
2022/06/03 02:36:49;;;;;;;7.10;5.03;;;9.40;99.90;;;;;;4913489;29;20048;-77
2022/06/03 02:39:43;;;;;;;9.68;5.28;;;9.40;99.90;;;;;;4930177;29;20044;-78
2022/06/03 02:42:29;;;;;;;8.63;4.80;;;9.40;99.90;;;;;;4935377;29;20134;-77
2022/06/03 02:45:16;;;;;;;6.38;4.68;;;9.40;99.90;;;;;;4926603;29;20048;-77
2022/06/03 02:48:33;;;;;;;7.53;4.88;;;9.30;99.90;;;;;;4970985;28;20097;-77
2022/06/03 02:51:52;;;;;;;9.95;5.47;;;9.30;99.90;;;;;;4945726;28;20065;-78
2022/06/03 02:54:29;;;;;;;7.63;4.70;;;9.30;99.90;;;;;;4953178;28;20111;-77
2022/06/03 03:01:00;;;;;;;7.10;4.82;;;9.30;99.90;;;;;;4957699;28;20050;-76
2022/06/03 03:03:57;;;;;;;11.13;5.18;;;9.20;99.90;;;;;;4936532;28;20042;-78
2022/06/03 03:06:49;;;;;;;6.72;4.80;;;9.20;99.90;;;;;;4934943;28;20130;-78
2022/06/03 03:09:32;;;;;;;11.20;4.90;;;9.20;99.90;;;;;;4957514;28;20387;-77
2022/06/03 03:12:26;;;;;;;8.50;4.57;;;9.10;99.90;;;;;;4949899;28;20185;-78
2022/06/03 03:15:13;;;;;;;8.65;4.85;;;9.10;99.90;;;;;;4938925;28;20047;-77
2022/06/03 03:17:53;;;;;;;9.30;5.20;;;9.10;99.90;;;;;;4937669;28;20428;-77
2022/06/03 03:20:33;;;;;;;14.18;5.93;;;9.10;99.90;;;;;;4966621;28;20121;-78
2022/06/03 03:23:34;;;;;;;10.27;6.35;;;9.20;99.90;;;;;;4958588;28;20205;-78
2022/06/03 03:26:20;;;;;;;10.57;6.00;;;9.20;99.90;;;;;;4953012;28;20068;-77
2022/06/03 03:29:05;;;;;;;16.38;6.97;;;9.20;99.90;;;;;;5054250;28;20089;-77
2022/06/03 03:31:51;;;;;;;14.52;7.18;;;9.30;99.90;;;;;;5076388;28;20047;-78
2022/06/03 03:35:08;;;;;;;10.82;7.50;;;9.30;99.90;;;;;;5076787;28;20055;-78
2022/06/03 03:38:03;;;;;;;16.67;9.40;;;9.40;99.90;;;;;;5058966;28;20033;-77
2022/06/03 03:41:19;;;;;;;14.07;9.73;;;9.50;99.90;;;;;;5073648;28;20115;-77
2022/06/03 03:44:13;;;;;;;13.50;9.07;;;9.50;99.90;;;;;;5068752;28;20048;-79
2022/06/03 03:46:57;;;;;;;15.40;8.82;;;9.60;99.90;;;;;;5069726;28;20044;-77
2022/06/03 03:49:50;;;;;;;13.05;8.85;;;9.70;99.90;;;;;;5081457;28;20089;-77
2022/06/03 03:52:36;;;;;;;14.20;9.05;;;9.70;99.90;;;;;;5057602;28;20047;-77
2022/06/03 03:55:07;;;;;;;;;;;9.80;99.90;;;;;;5038371;28;20468;-78
2022/06/03 03:58:17;;;;;;;11.48;7.75;;;9.80;99.90;;;;;;5039006;28;20007;-76
2022/06/03 04:01:20;;;;;;;10.95;7.93;;;10.00;99.90;;;;;;5039052;28;20538;-77
2022/06/03 04:04:07;;;;;;;10.85;7.35;;;10.10;99.90;;;;;;5056832;28;20041;-76
2022/06/03 04:06:53;;;;;;;12.18;8.30;;;10.10;99.90;;;;;;5067258;28;20048;-77
2022/06/03 04:09:28;;;;;;;12.23;7.80;;;10.30;99.90;;;;;;5067776;28;20048;-77
2022/06/03 04:12:23;;;;;;;15.13;8.70;;;10.30;99.90;;;;;;5069280;28;20486;-77
2022/06/03 04:15:21;;;;;;;20.00;9.23;;;10.30;99.90;;;;;;5052971;28;20044;-77
2022/06/03 04:18:24;;;;;;;18.58;9.27;;;10.40;99.90;;;;;;4983699;28;20150;-78
2022/06/03 04:21:03;;;;;;;13.10;8.73;;;10.50;99.90;;;;;;4972156;28;20046;-77
2022/06/03 04:23:32;;;;;;;13.68;8.85;;;10.50;99.90;;;;;;4967852;28;20161;-77
2022/06/03 04:26:41;;;;;;;13.95;8.52;;;10.60;99.90;;;;;;4977057;28;20047;-76
2022/06/03 04:29:34;;;;;;;12.57;8.68;;;10.70;99.90;;;;;;4985630;28;20467;-77
2022/06/03 04:32:23;;;;;;;13.52;8.13;;;11.20;99.90;;;;;;4969378;28;20236;-78
2022/06/03 04:35:18;;;;;;;11.20;8.25;;;12.20;99.90;;;;;;4974619;28;20057;-78
2022/06/03 04:37:59;;;;;;;12.23;8.18;;;13.00;99.90;;;;;;4983462;28;20050;-78
2022/06/03 04:40:52;;;;;;;10.25;8.23;;;13.60;99.90;;;;;;4968437;28;20054;-78
2022/06/03 04:43:39;;;;;;;13.95;8.63;;;14.00;99.90;;;;;;4975303;28;20125;-78
2022/06/03 04:46:17;;;;;;;16.67;8.77;;;14.10;99.90;;;;;;4985356;28;20066;-79
2022/06/03 04:49:04;;;;;;;13.50;8.32;;;14.60;99.90;;;;;;4987966;28;20058;-77
2022/06/03 04:52:07;;;;;;;13.15;7.97;;;14.90;99.90;;;;;;4969903;28;20130;-78
2022/06/03 04:55:07;;;;;;;13.07;8.13;;;15.00;99.90;;;;;;5051806;28;20506;-79
2022/06/03 04:57:45;;;;;;;12.70;7.93;;;14.30;99.90;;;;;;5069917;28;20051;-79
2022/06/03 05:00:20;;;;;;;13.07;8.27;;;13.70;99.90;;;;;;5058206;28;20036;-80
2022/06/03 05:03:03;;;;;;;16.40;6.68;;;13.30;99.90;;;;;;5065700;28;20131;-79
2022/06/03 05:05:38;;;;;;;9.95;6.95;;;13.00;99.90;;;;;;5065737;28;20158;-79
2022/06/03 05:08:49;;;;;;;10.27;6.80;;;12.70;99.90;;;;;;5084031;28;20128;-79
2022/06/03 05:11:52;;;;;;;15.18;6.55;;;12.60;99.90;;;;;;5072075;28;20047;-78
2022/06/03 05:14:47;;;;;;;9.07;6.10;;;12.50;99.90;;;;;;5080045;28;20036;-79
2022/06/03 05:17:32;;;;;;;9.75;5.97;;;12.50;99.90;;;;;;5041607;28;20044;-78
2022/06/03 05:20:06;;;;;;;10.40;5.80;;;12.60;99.90;;;;;;5072700;28;20048;-78
2022/06/03 05:23:01;;;;;;;8.27;6.25;;;12.70;99.90;;;;;;5044519;28;20044;-78
2022/06/03 05:26:03;;;;;;;7.50;5.65;;;12.60;99.90;;;;;;5083972;28;20052;-78
2022/06/03 05:28:35;;;;;;;8.45;5.88;;;12.70;99.90;;;;;;5064335;28;20067;-78
2022/06/03 05:31:43;;;;;;;10.52;6.07;;;12.70;99.90;;;;;;5050267;28;20320;-77
2022/06/03 05:34:30;;;;;;;17.67;5.40;;;12.70;99.90;;;;;;5047754;28;20046;-79
2022/06/03 05:37:41;;;;;;;9.93;5.60;;;12.80;99.90;;;;;;5067760;28;20383;-77
2022/06/03 05:40:41;;;;;;;9.90;5.88;;;12.80;99.90;;;;;;5070289;28;20036;-78
2022/06/03 05:43:17;;;;;;;8.98;5.07;;;12.80;99.90;;;;;;5058080;28;20044;-77
2022/06/03 05:46:08;;;;;;;10.25;5.00;;;12.80;99.90;;;;;;5058643;28;20088;-78
2022/06/03 05:48:49;;;;;;;7.00;5.20;;;12.80;99.90;;;;;;5053679;28;20041;-78
2022/06/03 05:51:33;;;;;;;10.35;5.40;;;12.90;99.90;;;;;;5076315;28;20758;-78
2022/06/03 05:54:14;;;;;;;12.30;5.07;;;12.90;99.90;;;;;;5073476;28;20435;-77
2022/06/03 05:57:11;;;;;;;8.40;5.10;;;12.90;99.90;;;;;;5072771;28;20165;-77
2022/06/03 05:59:56;;;;;;;10.00;4.50;;;13.00;99.90;;;;;;5055399;28;20089;-79
2022/06/03 06:02:45;;;;;;;13.43;4.93;;;13.10;99.90;;;;;;5069804;28;20210;-78
2022/06/03 06:05:37;;;;;;;8.95;4.20;;;13.20;99.90;;;;;;5081519;28;20051;-79
2022/06/03 06:08:40;;;;;;;7.57;3.70;;;13.30;99.90;;;;;;5074203;28;20432;-78
2022/06/03 06:11:26;;;;;;;6.90;3.78;;;13.40;99.90;;;;;;5047999;28;20066;-77
2022/06/03 06:14:10;;;;;;;6.07;3.80;;;13.40;99.90;;;;;;5072914;28;20123;-78
2022/06/03 06:16:37;;;;;;;5.63;3.28;;;13.40;99.90;;;;;;5071373;28;20041;-78
2022/06/03 06:19:12;;;;;;;7.55;2.85;;;13.60;99.90;;;;;;5056216;28;20036;-78
2022/06/03 06:21:59;;;;;;;7.60;3.50;;;13.60;99.90;;;;;;5058192;28;20036;-79
2022/06/03 06:24:34;;;;;;;7.95;3.20;;;13.60;99.90;;;;;;5064191;28;20447;-79
2022/06/03 06:27:25;;;;;;;8.20;3.15;;;13.70;99.90;;;;;;5076514;28;20055;-78
2022/06/03 06:30:21;;;;;;;9.13;3.60;;;13.80;99.90;;;;;;5078041;28;20495;-80
2022/06/03 06:33:06;;;;;;;7.60;3.20;;;14.00;99.90;;;;;;5066207;28;20039;-77
2022/06/03 06:36:19;;;;;;;9.70;3.00;;;14.10;99.90;;;;;;5069126;28;20521;-80
2022/06/03 06:39:18;;;;;;;3.17;2.40;;;14.10;99.90;;;;;;4986424;28;20222;-80
2022/06/03 06:42:08;;;;;;;7.40;2.50;;;14.20;99.90;;;;;;4970854;28;20182;-81
2022/06/03 06:45:09;;;;;;;6.95;2.60;;;14.40;99.90;;;;;;4968428;28;20056;-78
2022/06/03 06:47:46;;;;;;;5.45;2.22;;;14.40;99.90;;;;;;4967598;28;20061;-79
2022/06/03 06:50:45;;;;;;;4.85;1.95;;;14.50;99.90;;;;;;4967360;28;20105;-85
2022/06/03 06:53:23;;;;;;;4.53;1.70;;;14.50;99.90;;;;;;4981876;28;20042;-84
2022/06/03 06:55:55;;;;;;;4.35;2.17;;;14.50;99.90;;;;;;4962284;28;20554;-82
2022/06/03 06:59:05;;;;;;;3.05;1.80;;;14.60;99.90;;;;;;4983507;28;20050;-79
2022/06/03 07:01:44;;;;;;;7.15;1.70;;;14.70;99.90;;;;;;4925731;29;20126;-82
2022/06/03 07:04:18;;;;;;;4.60;1.75;;;14.80;99.90;;;;;;4928311;29;20395;-78
2022/06/03 07:06:54;;;;;;;3.47;2.10;;;14.90;99.90;;;;;;4916998;28;20061;-80
2022/06/03 07:09:50;;;;;;;3.50;1.80;;;14.90;99.90;;;;;;4926460;28;20047;-78
2022/06/03 07:12:42;;;;;;;4.40;1.50;;;15.00;99.90;;;;;;4926172;29;20090;-77
2022/06/03 07:15:18;;;;;;;2.63;1.52;;;15.10;99.90;;;;;;4982509;28;21080;-78
2022/06/03 07:21:45;;;;;;;6.82;1.63;;;15.20;99.90;;;;;;4996146;28;20060;-80
2022/06/03 07:24:51;;;;;;;4.55;1.50;;;15.40;99.90;;;;;;4981682;28;20038;-78
2022/06/03 07:27:26;;;;;;;5.65;1.80;;;15.50;99.90;;;;;;5009359;28;20929;-78
2022/06/03 07:30:19;;;;;;;4.43;1.67;;;15.60;99.90;;;;;;5003282;28;20054;-77
2022/06/03 07:33:15;;;;;;;3.60;1.20;;;15.70;99.90;;;;;;4983821;28;20034;-81
2022/06/03 07:35:46;;;;;;;4.95;1.50;;;15.70;99.90;;;;;;4965177;28;20133;-79
2022/06/03 07:38:26;;;;;;;4.63;1.50;;;15.70;99.90;;;;;;4995142;28;20042;-79
2022/06/03 07:41:22;;;;;;;1.77;1.20;;;15.80;99.90;;;;;;4981305;28;20058;-78
2022/06/03 07:43:59;;;;;;;3.38;1.35;;;15.80;99.90;;;;;;4983835;28;20054;-78
2022/06/03 07:47:00;;;;;;;2.58;1.40;;;15.90;99.90;;;;;;4999085;28;20050;-79
2022/06/03 07:49:29;;;;;;;2.97;0.90;;;16.00;99.90;;;;;;4989541;28;20045;-80
2022/06/03 07:52:03;;;;;;;5.07;1.30;;;16.10;99.90;;;;;;5010176;28;20547;-82
2022/06/03 07:54:35;;;;;;;2.53;1.20;;;16.10;99.90;;;;;;5007607;28;20055;-77
2022/06/03 07:57:02;;;;;;;3.90;1.30;;;16.30;99.90;;;;;;5027772;28;20044;-78
2022/06/03 07:59:31;;;;;;;2.33;1.27;;;16.40;99.90;;;;;;5011102;28;20044;-78
2022/06/03 08:02:03;;;;;;;3.95;1.50;;;16.40;99.90;;;;;;5063096;28;20090;-79
2022/06/03 08:04:35;;;;;;;4.00;1.30;;;16.50;99.90;;;;;;5068226;28;20119;-79
2022/06/03 08:13:07;;;;;;;5.47;1.15;;;16.70;99.90;;;;;;5067610;28;20134;-82
2022/06/03 08:15:36;;;;;;;5.88;1.10;;;16.70;99.90;;;;;;5066395;28;20031;-79
2022/06/03 08:18:06;;;;;;;2.88;1.20;;;16.80;99.90;;;;;;5055144;28;20042;-82
2022/06/03 08:20:38;;;;;;;2.95;1.13;;;16.90;99.90;;;;;;5061522;28;20456;-76
2022/06/03 08:23:05;;;;;;;3.00;1.17;;;16.90;99.90;;;;;;5078694;28;20029;-80
2022/06/03 08:25:37;;;;;;;4.45;1.17;;;17.10;99.90;;;;;;5066491;28;20441;-80
2022/06/03 08:28:03;;;;;;;2.08;1.00;;;17.10;99.90;;;;;;5066266;28;20047;-81
2022/06/03 08:30:29;;;;;;;1.80;1.13;;;17.20;99.90;;;;;;5067563;28;20040;-78
2022/06/03 08:33:08;;;;;;;2.42;1.20;;;17.30;99.90;;;;;;5063591;28;20508;-81
2022/06/03 08:35:38;;;;;;;1.50;1.05;;;17.20;99.90;;;;;;5043130;28;20055;-82
2022/06/03 08:38:10;;;;;;;2.17;1.20;;;17.30;99.90;;;;;;5044493;28;20075;-82
2022/06/03 08:41:06;;;;;;;4.30;1.15;;;17.30;99.90;;;;;;5084181;28;20063;-80
2022/06/03 08:43:57;;;;;;;5.60;1.00;;;17.60;99.90;;;;;;5077516;28;20093;-78
2022/06/03 08:46:38;;;;;;;2.60;1.20;;;17.80;99.90;;;;;;5064873;28;20092;-79
2022/06/03 08:49:11;;;;;;;2.00;1.17;;;17.80;99.90;;;;;;5061296;28;20032;-76
2022/06/03 08:51:51;;;;;;;2.08;1.10;;;18.00;99.90;;;;;;5079087;28;20039;-76
2022/06/03 08:54:35;;;;;;;2.00;1.20;;;18.10;99.90;;;;;;5089035;28;20119;-82
2022/06/03 08:57:13;;;;;;;4.18;1.15;;;18.20;99.90;;;;;;5072788;28;20094;-78
2022/06/03 09:00:07;;;;;;;2.50;1.10;;;18.10;99.90;;;;;;5070875;28;20104;-77
2022/06/03 09:02:40;;;;;;;2.05;1.20;;;18.30;99.90;;;;;;5005346;28;20125;-79
2022/06/03 09:05:30;;;;;;;6.10;1.38;;;18.40;99.90;;;;;;5002148;28;20469;-78
2022/06/03 09:08:12;;;;;;;7.35;1.35;;;18.40;99.90;;;;;;4993087;28;20054;-81
2022/06/03 09:10:45;;;;;;;1.85;1.20;;;18.40;99.90;;;;;;4993123;28;20048;-82
2022/06/03 09:13:25;;;;;;;3.00;1.20;;;18.50;99.90;;;;;;5015533;28;20050;-80
2022/06/03 09:15:52;;;;;;;6.65;1.52;;;18.60;99.90;;;;;;5001283;28;20413;-80
2022/06/03 09:18:29;;;;;;;3.42;1.38;;;18.70;99.90;;;;;;4991959;28;20121;-82
2022/06/03 09:21:01;;;;;;;3.22;1.38;;;18.60;99.90;;;;;;4977336;28;20229;-80
2022/06/03 09:23:28;;;;;;;3.67;1.38;;;18.60;99.90;;;;;;4999952;28;20119;-83
2022/06/03 09:25:57;;;;;;;8.10;1.67;;;18.70;99.90;;;;;;4984958;28;20137;-80
2022/06/03 09:28:29;;;;;;;3.35;1.40;;;18.80;99.90;;;;;;4999602;28;20064;-77
2022/06/03 09:30:57;;;;;;;3.13;1.40;;;18.90;99.90;;;;;;4980340;28;20049;-79
2022/06/03 09:33:25;;;;;;;1.83;1.20;;;19.10;99.90;;;;;;5009072;28;20592;-79
2022/06/03 09:35:54;;;;;;;4.22;1.40;;;19.20;99.90;;;;;;5009730;28;20096;-80
2022/06/03 09:38:24;;;;;;;3.42;1.50;;;19.30;99.90;;;;;;4997903;28;20043;-79
2022/06/03 09:40:52;;;;;;;5.28;1.60;;;19.50;99.90;;;;;;5051299;28;20040;-78
2022/06/03 09:43:21;;;;;;;2.60;1.42;;;19.40;99.90;;;;;;5075720;28;20055;-82
2022/06/03 09:45:50;;;;;;;3.22;1.50;;;19.40;99.90;;;;;;5081872;28;20438;-77
2022/06/03 09:48:26;;;;;;;4.65;1.27;;;19.60;99.90;;;;;;5044737;28;20067;-79
2022/06/03 09:50:54;;;;;;;3.25;1.70;;;20.00;99.90;;;;;;5065007;28;20413;-80
2022/06/03 09:53:22;;;;;;;2.92;1.80;;;20.10;99.90;;;;;;5080006;28;20044;-80
2022/06/03 09:55:54;;;;;;;5.03;1.40;;;20.20;99.90;;;;;;5082454;28;20122;-81
2022/06/03 09:58:24;;;;;;;4.07;1.52;;;20.10;99.90;;;;;;5055992;28;20406;-81
2022/06/03 10:00:53;;;;;;;5.38;1.70;;;20.30;99.90;;;;;;5071200;28;20040;-80
2022/06/03 10:03:20;;;;;;;3.58;1.50;;;20.10;99.90;;;;;;5063937;28;20568;-81
2022/06/03 10:05:50;;;;;;;5.25;1.58;;;20.40;99.90;;;;;;5085310;28;20458;-78
2022/06/03 10:08:19;;;;;;;6.15;2.60;;;20.40;99.90;;;;;;5070221;28;20146;-82
2022/06/03 10:13:33;;;;;;;6.85;1.85;;;20.10;99.90;;;;;;5056413;28;20060;-80
2022/06/03 10:16:00;;;;;;;5.32;1.75;;;20.00;99.90;;;;;;5053091;28;20097;-76
2022/06/03 10:18:42;;;;;;;4.78;1.75;;;20.40;99.90;;;;;;5081614;28;20040;-75
2022/06/03 10:21:08;;;;;;;6.05;1.83;;;20.60;99.90;;;;;;5065381;28;20067;-80
2022/06/03 10:23:37;;;;;;;7.53;1.70;;;20.40;99.90;;;;;;5061767;28;20087;-79
2022/06/03 10:26:04;;;;;;;5.22;1.60;;;20.50;99.90;;;;;;5061081;28;20055;-79
2022/06/03 10:28:35;;;;;;;3.63;1.85;;;20.60;99.90;;;;;;5047024;28;20060;-81
2022/06/03 10:31:14;;;;;;;3.92;1.60;;;20.80;99.90;;;;;;5069750;28;20052;-79
2022/06/03 10:33:39;;;;;;;3.20;1.85;;;21.00;99.90;;;;;;5067469;28;20039;-80
2022/06/03 10:36:06;;;;;;;5.25;2.00;;;21.20;99.90;;;;;;5044651;28;20129;-78
2022/06/03 10:38:35;;;;;;;4.20;1.85;;;21.20;99.80;;;;;;5053292;28;20457;-82
2022/06/03 10:41:09;;;;;;;3.33;1.90;;;21.20;99.90;;;;;;5091475;28;20055;-78
2022/06/03 10:43:36;;;;;;;3.90;2.17;;;21.00;99.90;;;;;;5056324;28;20027;-83
2022/06/03 10:46:11;;;;;;;5.00;2.05;;;21.30;99.90;;;;;;5060952;28;20075;-81
2022/06/03 10:48:37;;;;;;;;;;;21.10;99.50;;;;;;5057612;28;20092;-80
2022/06/03 10:51:17;;;;;;;5.10;2.10;;;21.10;99.80;;;;;;5079028;28;19942;-79
2022/06/03 11:02:33;;;;;;;2.03;1.80;;;22.10;99.90;;;;;;5064647;28;20135;-79
2022/06/03 11:05:25;;;;;;;2.05;1.60;;;22.00;98.80;;;;;;5069357;28;20044;-81
2022/06/03 11:08:07;;;;;;;3.28;1.98;;;22.40;99.50;;;;;;5060329;28;20062;-81
2022/06/03 11:10:39;;;;;;;3.72;1.85;;;22.40;99.00;;;;;;5068522;28;20105;-81
2022/06/03 11:13:07;;;;;;;3.00;1.42;;;22.60;98.50;;;;;;5059815;28;20075;-79
2022/06/03 11:15:37;;;;;;;3.55;1.45;;;22.80;98.00;;;;;;5077048;28;20391;-79
2022/06/03 11:18:29;;;;;;;2.72;1.58;;;22.70;98.50;;;;;;5057879;28;20098;-85
2022/06/03 11:21:00;;;;;;;3.20;1.38;;;22.90;98.00;;;;;;5084944;28;20113;-82
2022/06/03 11:23:25;;;;;;;3.85;1.67;;;22.70;97.40;;;;;;5068670;28;20048;-83
2022/06/03 11:26:00;;;;;;;3.95;2.10;;;21.70;97.20;;;;;;5066905;28;20521;-77
2022/06/03 11:28:32;;;;;;;3.05;1.75;;;21.70;98.30;;;;;;5054882;28;20107;-78
2022/06/03 11:31:06;;;;;;;5.75;1.92;;;22.10;98.50;;;;;;5058947;28;20383;-80
2022/06/03 11:33:48;;;;;;;2.80;1.70;;;22.40;98.40;;;;;;5054657;28;20040;-80
2022/06/03 11:36:27;;;;;;;4.65;1.92;;;22.70;97.40;;;;;;5074931;28;20115;-80
2022/06/03 11:39:04;;;;;;;3.15;1.63;;;23.30;96.80;;;;;;5060825;28;20111;-81
2022/06/03 11:41:40;;;;;;;5.78;1.65;;;23.30;96.00;;;;;;5059673;28;20040;-79
2022/06/03 11:44:14;;;;;;;5.15;1.70;;;23.00;96.60;;;;;;5058637;28;20052;-79
2022/06/03 11:46:46;;;;;;;4.13;1.70;;;22.70;97.20;;;;;;5082237;28;20044;-78
2022/06/03 11:49:17;;;;;;;3.58;1.63;;;23.30;97.30;;;;;;5055506;28;20039;-78
2022/06/03 11:51:45;;;;;;;1.90;1.40;;;23.40;96.10;;;;;;5061720;28;20122;-77
2022/06/03 11:54:14;;;;;;;2.55;1.67;;;23.20;96.00;;;;;;5054863;28;20065;-78
2022/06/03 11:56:41;;;;;;;3.42;1.50;;;23.50;94.90;;;;;;5070092;28;20394;-77
2022/06/03 11:59:19;;;;;;;2.38;1.70;;;24.10;95.60;;;;;;5062521;28;20040;-78
2022/06/03 12:01:51;;;;;;;2.70;1.50;;;23.80;95.20;;;;;;5048182;28;20059;-79
2022/06/03 12:04:42;;;;;;;2.47;1.20;;;23.70;95.80;;;;;;5058229;28;20150;-80
2022/06/03 12:07:22;;;;;;;5.38;1.75;;;24.20;94.40;;;;;;5064167;28;20162;-76
2022/06/03 12:10:13;;;;;;;2.70;1.40;;;24.10;95.00;;;;;;5058120;28;20433;-76
2022/06/03 12:15:28;;;;;;;3.30;1.63;;;23.80;94.90;;;;;;5069154;28;20067;-76
2022/06/03 12:17:54;;;;;;;3.28;1.77;;;23.50;93.70;;;;;;5071512;28;20083;-76
2022/06/03 12:20:32;;;;;;;2.30;1.50;;;23.10;94.50;;;;;;5069020;28;20081;-77
2022/06/03 12:23:18;;;;;;;1.60;1.40;;;23.70;94.40;;;;;;5075137;28;20044;-76
2022/06/03 12:26:03;;;;;;;2.78;1.63;;;23.80;94.40;;;;;;4978194;28;20441;-78
2022/06/03 12:28:37;;;;;;;5.03;1.60;;;24.10;94.60;;;;;;4997196;28;20046;-78
2022/06/03 12:31:17;;;;;;;3.23;1.70;;;23.50;95.30;;;;;;4983186;28;20050;-78
2022/06/03 12:33:56;;;;;;;2.38;1.50;;;23.50;95.00;;;;;;4986065;28;20082;-76
2022/06/03 12:36:24;;;;;;;3.08;1.63;;;23.60;95.00;;;;;;4993272;28;20050;-76
2022/06/03 12:39:01;;;;;;;3.30;1.50;;;23.70;94.70;;;;;;4993356;28;20101;-76
2022/06/03 12:41:45;;;;;;;2.25;1.38;;;23.60;95.00;;;;;;4984383;28;20046;-77
2022/06/03 12:44:33;;;;;;;2.40;1.60;;;23.30;94.50;;;;;;4988051;28;20054;-77
2022/06/03 12:47:23;;;;;;;5.15;1.50;;;23.40;94.60;;;;;;4996449;28;20049;-78
2022/06/03 12:49:54;;;;;;;3.58;1.50;;;23.50;95.30;;;;;;4991969;28;20054;-78
2022/06/03 12:52:25;;;;;;;6.57;1.30;;;23.80;95.30;;;;;;4996310;28;20077;-78
2022/06/03 12:55:02;;;;;;;4.97;1.83;;;24.10;94.40;;;;;;5000707;28;20052;-78
2022/06/03 12:57:55;;;;;;;4.57;1.80;;;24.70;94.10;;;;;;5001427;28;20057;-78
2022/06/03 13:00:21;;;;;;;2.20;1.05;;;24.80;93.90;;;;;;4991541;28;20518;-78
2022/06/03 13:03:01;;;;;;;5.20;1.40;;;25.00;94.30;;;;;;5034256;28;20063;-78
2022/06/03 13:05:46;;;;;;;2.15;1.00;;;24.60;94.40;;;;;;5041982;28;20067;-77
2022/06/03 13:08:27;;;;;;;3.97;1.30;;;23.90;93.70;;;;;;5050872;28;20048;-77
2022/06/03 13:10:57;;;;;;;4.97;1.23;;;23.50;95.30;;;;;;5045461;28;20063;-78
2022/06/03 13:13:38;;;;;;;4.07;1.20;;;23.50;95.00;;;;;;5050400;28;20078;-76
2022/06/03 13:16:24;;;;;;;6.10;1.38;;;23.30;95.70;;;;;;5038200;28;20049;-77
2022/06/03 13:18:52;;;;;;;3.03;1.00;;;22.70;96.50;;;;;;5064384;28;20048;-77
2022/06/03 13:21:28;;;;;;;2.63;1.00;;;22.80;96.90;;;;;;5052787;28;20032;-76
2022/06/03 13:24:21;;;;;;;5.07;1.40;;;22.80;96.40;;;;;;5048118;28;20048;-78
2022/06/03 13:26:49;;;;;;;2.60;0.93;;;23.20;96.40;;;;;;5072736;28;20047;-77
2022/06/03 13:29:50;;;;;;;5.80;1.05;;;22.80;97.00;;;;;;5072808;28;20043;-79
2022/06/03 13:32:38;;;;;;;2.72;0.98;;;22.80;96.40;;;;;;5073562;28;20395;-77
2022/06/03 13:35:28;;;;;;;3.05;1.10;;;22.40;96.80;;;;;;5070547;28;20036;-76
2022/06/03 13:37:57;;;;;;;2.90;0.85;;;22.50;96.90;;;;;;5073232;28;20079;-76
2022/06/03 13:40:26;;;;;;;4.07;1.00;;;22.70;96.50;;;;;;5063832;28;20048;-77
2022/06/03 13:42:58;;;;;;;4.22;1.17;;;22.70;95.90;;;;;;5047931;28;20051;-78
2022/06/03 13:45:41;;;;;;;2.47;1.10;;;22.60;96.10;;;;;;5048137;28;20028;-78
2022/06/03 13:48:15;;;;;;;2.58;0.70;;;22.80;96.00;;;;;;5069546;28;20036;-75
2022/06/03 13:50:41;;;;;;;5.75;1.00;;;22.40;96.20;;;;;;5061955;28;20096;-76
2022/06/03 13:53:11;;;;;;;3.42;1.00;;;22.90;96.40;;;;;;5067388;28;20048;-76
2022/06/03 13:55:37;;;;;;;6.85;1.27;;;23.00;96.00;;;;;;5063680;28;20510;-76
2022/06/03 13:58:26;;;;;;;3.70;1.00;;;23.20;95.60;;;;;;5076020;28;20044;-77
2022/06/03 14:01:14;;;;;;;8.00;1.10;;;23.00;95.60;;;;;;5052136;28;20048;-77
2022/06/03 14:03:48;;;;;;;7.28;1.00;;;22.90;95.60;;;;;;5071402;28;20059;-76
2022/06/03 14:06:27;;;;;;;13.73;1.70;;;22.80;96.00;;;;;;5067186;28;20151;-78
2022/06/03 14:09:09;;;;;;;2.45;0.90;;;22.80;95.30;;;;;;5056112;28;20050;-78
2022/06/03 14:11:41;;;;;;;3.88;1.00;;;22.80;95.70;;;;;;5070973;28;20051;-76
2022/06/03 14:14:23;;;;;;;4.90;1.13;;;23.10;94.90;;;;;;5056728;28;20435;-76
2022/06/03 14:17:01;;;;;;;3.35;0.95;;;23.00;94.40;;;;;;5061708;28;20060;-76
2022/06/03 14:19:59;;;;;;;2.30;0.73;;;22.40;95.40;;;;;;5045033;28;20375;-77
2022/06/03 14:22:43;;;;;;;3.22;0.80;;;22.60;94.60;;;;;;5027846;28;20077;-76
2022/06/03 14:25:12;;;;;;;2.17;0.75;;;22.30;94.50;;;;;;5026594;28;20049;-76
2022/06/03 14:28:07;;;;;;;3.95;0.73;;;22.10;94.30;;;;;;5026229;28;20052;-76
2022/06/03 14:30:57;;;;;;;2.00;0.73;;;22.40;94.40;;;;;;5009233;28;20132;-76
2022/06/03 14:33:27;;;;;;;2.47;0.73;;;22.60;94.60;;;;;;5014574;28;20144;-75
2022/06/03 14:35:57;;;;;;;4.53;0.77;;;22.70;94.00;;;;;;5018148;28;20045;-75